LGMK

Mikonos Airport

Mykonos Island, Greece
TAF LGMK 210800Z 2109/2118 35018KT 9999 FEW020
Issued Valid From Valid To
Jul-21 @ 08:00 UTC
(2 hours ago)
Jul-21 @ 09:00 UTC
(an hour ago)
Jul-21 @ 18:00 UTC
(in 8 hours)
Jul-21 @ 09:00 to Jul-21 @ 18:00
TAF LGMK 210800Z 2109/2118 35018KT 9999 FEW020
Wind Visibility Clouds
350° at 18 knots 10,000+ meters
  • Few at 2,000' AGL
TAF LGMK 210800Z 2109/2118 35018KT 9999 FEW020
Issued Jul-21 @ 08:00 UTC
(2 hours ago)
Valid From Jul-21 @ 09:00 UTC
(an hour ago)
Valid To Jul-21 @ 18:00 UTC
(in 8 hours)
Jul-21 @ 09:00 - Jul-21 @ 18:00
Wind Visibility
350° at 18 knots 10,000+ meters
Clouds
  • Few at 2,000' AGL